Aérodrome :
LOGIN :

S'inscrire | Disclaimer

   EN    FR    IT 

 










Légende :    VFR   VFR Marginal   IFR   IFR Intensif   IFR Très Intensif
Visi : 
Plafond : 
>= 8 km
>= 3000ft
5 à 8 km
1000 à 3000 ft
1500m à 5 km
500 à 1000 ft
800 à 1500m
200 à 500 ft
< 800m
< 200 ft
Symboles :   Orages  Brouillard  Fortes neiges  Fortes précipitations  Vent > 20 kt
SIGMETs :   Divers  Orages  Givrage  Turbulence  Onde Orograph.  Cendres Volcan.






- Altitude de l'aérodrome : 18 ft
- Code IATA : AJA


LFKJ - Ajaccio

DERNIER METAR :
  • 272030Z AUTO 27012KT 9999 FEW022/// OVC052/// ///TCU 14/11 Q1013 BECMG NSC

METARs EXPIRÉS :
  • 272000Z AUTO 27011KT 9999 FEW022 OVC052 14/10 Q1013 NOSIG
  • 271930Z AUTO 27012KT 9999 FEW025/// OVC052/// ///TCU 14/10 Q1013 BECMG BKN030
  • 271900Z AUTO 26012KT 9999 BKN027/// BKN033/// OVC050/// ///TCU 13/10 Q1013 TEMPO 05008KT 4000 SHRA BKN013 SCT020CB BKN025
  • 271830Z AUTO VRB06KT 9999 FEW026/// OVC050/// ///CB 12/10 Q1012 TEMPO 4000 SHRA BECMG BKN030
  • 271800Z AUTO 07006KT 010V170 3800 -RA BR BKN012/// BKN020/// BKN032/// ///CB 11/09 Q1012 TEMPO 26015G25KT SCT020CB BKN025 BECMG 9999 NSW

TAF TAF LFKJ
Valide du 27 à 21h jusqu'au 28 à 21h UTC


272000Z 2721/2821 27012KT 9999 NSC
BECMG 2808/2811 24008KT
ATIS : +33 4 95 23 59 85



MET'MAP, la Météo Aéronautique d'un coup d'oeil ! - Copyright ORBIFLY Décembre 2007 - Disclaimer

ORBIFLY MET'MAP TEAM :

Programmation & Développement : Alexandra Zaïnal
Sur une idée originale de : Baudouin d'Aumeries
Assistance à la programmation : Marc-Olivier Méhu
Soutien technique & logistique : Manuel Goepfert

Contact : metmap@orbifly.com




SOURCES & CREDITS :

   NOAA